Time;durP1;ratioP1;P1;durP2;ratioP2;P2;SDS_P1;SDS_P2;PMS_P1;PMS_P2;Temp;Humidity;BMP_temperature;BMP_pressure;BME280_temperature;BME280_humidity;BME280_pressure;Samples;Min_cycle;Max_cycle;Signal;HPM_P1;HPM_P2
2021/08/13 00:00:36;;;;;;;860.07;711.30;;;;;;;15.29;65.04;101369.19;5072866;28;20431;-68
2021/08/13 00:03:04;;;;;;;859.07;715.77;;;;;;;15.25;64.55;101364.13;5072908;28;21010;-68
2021/08/13 00:05:33;;;;;;;850.20;700.37;;;;;;;15.20;64.73;101365.34;5073126;28;20560;-68
2021/08/13 00:08:01;;;;;;;850.37;702.47;;;;;;;15.16;65.50;101365.72;5059144;28;20447;-69
2021/08/13 00:10:29;;;;;;;837.90;680.73;;;;;;;15.17;65.12;101371.00;5072943;28;20443;-68
2021/08/13 00:12:58;;;;;;;847.63;702.20;;;;;;;15.13;65.01;101366.81;5072537;28;20913;-68
2021/08/13 00:15:28;;;;;;;852.70;708.37;;;;;;;15.13;64.67;101383.03;5072816;28;20449;-68
2021/08/13 00:17:56;;;;;;;858.37;732.90;;;;;;;15.14;64.34;101373.09;5072643;28;20974;-68
2021/08/13 00:20:24;;;;;;;850.70;709.77;;;;;;;15.13;64.42;101376.78;5072565;28;20458;-68
2021/08/13 00:22:53;;;;;;;846.23;703.33;;;;;;;15.14;64.78;101368.53;5072524;28;20976;-68
2021/08/13 00:25:21;;;;;;;851.50;707.53;;;;;;;15.15;64.22;101381.09;5072546;28;20434;-68
2021/08/13 00:27:49;;;;;;;849.40;700.70;;;;;;;15.14;63.94;101373.94;5072558;28;20447;-68
2021/08/13 00:30:20;;;;;;;844.30;709.67;;;;;;;15.17;64.00;101368.28;5105427;28;20431;-68
2021/08/13 00:32:50;;;;;;;851.73;707.77;;;;;;;15.04;65.81;101359.41;5105342;28;20834;-68
2021/08/13 00:35:20;;;;;;;840.00;692.97;;;;;;;15.01;65.97;101367.75;5071397;28;20468;-68
2021/08/13 00:37:48;;;;;;;842.00;694.67;;;;;;;14.97;65.75;101360.84;5105224;28;20934;-68
2021/08/13 00:40:17;;;;;;;822.90;674.80;;;;;;;14.97;65.38;101363.53;5104901;28;20451;-68
2021/08/13 00:42:46;;;;;;;825.23;673.53;;;;;;;14.97;65.13;101366.25;5104929;28;20467;-68
2021/08/13 00:45:15;;;;;;;822.07;665.27;;;;;;;14.96;64.65;101364.53;5070889;28;20481;-68
2021/08/13 00:47:59;;;;;;;834.33;688.07;;;;;;;14.93;64.84;101364.75;5105166;28;20465;-68
2021/08/13 00:50:50;;;;;;;828.47;675.23;;;;;;;14.83;64.61;101350.22;5072059;28;20448;-68
2021/08/13 00:53:20;;;;;;;812.63;648.53;;;;;;;14.85;65.36;101364.50;5104884;28;20444;-69
2021/08/13 00:55:51;;;;;;;830.43;671.53;;;;;;;14.81;65.44;101371.09;5104618;28;20474;-68
2021/08/13 00:58:55;;;;;;;827.87;660.70;;;;;;;14.80;65.13;101358.56;5069106;28;20786;-68
2021/08/13 01:01:47;;;;;;;827.63;665.57;;;;;;;14.78;64.75;101360.53;5065330;28;20947;-68
2021/08/13 01:04:18;;;;;;;834.60;679.93;;;;;;;14.77;65.04;101367.78;5063602;28;20483;-68
2021/08/13 01:06:50;;;;;;;830.93;669.37;;;;;;;14.73;64.84;101360.00;5067457;28;20800;-68
2021/08/13 01:09:19;;;;;;;819.43;655.27;;;;;;;14.73;65.25;101358.19;5104018;28;20446;-68
2021/08/13 01:11:54;;;;;;;822.23;656.63;;;;;;;14.60;65.12;101338.44;5072844;28;20448;-68
2021/08/13 01:14:30;;;;;;;831.50;664.80;;;;;;;14.67;65.23;101353.19;5070129;28;20469;-67
2021/08/13 01:17:00;;;;;;;812.60;640.07;;;;;;;14.68;64.70;101364.88;5103333;28;20439;-68
2021/08/13 01:19:42;;;;;;;810.00;635.47;;;;;;;14.64;65.40;101357.97;5070676;28;20448;-68
2021/08/13 01:22:17;;;;;;;825.37;660.73;;;;;;;14.56;66.50;101351.31;5083009;28;20515;-68
2021/08/13 01:24:48;;;;;;;815.10;649.73;;;;;;;14.55;65.67;101355.00;5071651;28;21102;-68
2021/08/13 01:27:20;;;;;;;817.53;650.43;;;;;;;14.13;65.56;101277.09;5103909;28;20946;-68
2021/08/13 01:29:56;;;;;;;816.03;647.53;;;;;;;14.56;65.74;101354.00;5103919;27;20447;-68
2021/08/13 01:32:42;;;;;;;813.60;640.60;;;;;;;14.57;65.02;101360.28;5103958;28;20478;-67
2021/08/13 01:35:16;;;;;;;805.40;611.57;;;;;;;14.56;64.65;101354.00;5057885;28;20539;-68
2021/08/13 01:37:49;;;;;;;805.23;620.47;;;;;;;14.58;64.97;101360.16;5087088;28;20493;-68
2021/08/13 01:40:21;;;;;;;809.17;635.67;;;;;;;14.57;65.11;101353.03;5103925;28;20999;-68
2021/08/13 01:42:51;;;;;;;800.83;619.20;;;;;;;14.54;65.14;101349.72;5075586;28;20450;-68
2021/08/13 01:45:28;;;;;;;797.57;611.53;;;;;;;14.51;65.33;101356.22;5103775;28;20479;-68
2021/08/13 01:47:59;;;;;;;795.70;615.60;;;;;;;14.51;64.55;101352.66;5103398;28;20551;-68
2021/08/13 01:50:28;;;;;;;801.13;628.43;;;;;;;14.44;65.21;101341.44;5070993;28;21021;-68
2021/08/13 01:53:00;;;;;;;797.63;623.57;;;;;;;14.48;65.42;101355.56;5103306;28;20450;-68
2021/08/13 01:55:30;;;;;;;802.43;619.73;;;;;;;14.45;65.19;101356.66;5083962;28;20926;-68
2021/08/13 01:57:59;;;;;;;808.57;635.43;;;;;;;14.25;64.79;101330.22;5069605;28;20500;-68
2021/08/13 02:00:28;;;;;;;793.17;603.50;;;;;;;14.40;64.65;101350.72;5086138;28;20452;-68
2021/08/13 02:03:01;;;;;;;800.80;619.33;;;;;;;14.37;64.85;101344.66;5069741;28;20471;-68
2021/08/13 02:05:34;;;;;;;773.33;562.00;;;;;;;14.39;65.09;101349.00;5070600;28;20564;-68
2021/08/13 02:08:07;;;;;;;797.93;601.10;;;;;;;14.44;65.13;101357.66;5103174;28;20451;-68
2021/08/13 02:10:41;;;;;;;816.40;632.37;;;;;;;14.42;66.27;101354.16;5103097;28;20511;-68
2021/08/13 02:13:11;;;;;;;785.83;579.03;;;;;;;14.43;66.77;101360.47;5103005;28;20497;-68
2021/08/13 02:15:48;;;;;;;776.77;558.23;;;;;;;14.44;66.86;101354.94;5103046;28;20531;-68
2021/08/13 02:18:23;;;;;;;793.20;592.87;;;;;;;14.41;66.95;101336.22;5102971;28;20540;-68
2021/08/13 02:20:55;;;;;;;804.73;609.87;;;;;;;14.50;66.85;101346.38;5102747;28;20454;-68
2021/08/13 02:23:25;;;;;;;808.00;629.60;;;;;;;14.54;65.45;101347.88;5103069;28;20435;-68
2021/08/13 02:26:00;;;;;;;804.30;631.07;;;;;;;14.59;66.06;101345.69;5068808;28;20476;-68
2021/08/13 02:28:30;;;;;;;816.23;650.93;;;;;;;14.63;65.17;101346.31;5102717;28;21006;-68
2021/08/13 02:30:59;;;;;;;816.67;654.43;;;;;;;14.68;65.08;101340.53;5102756;28;20444;-68
2021/08/13 02:33:31;;;;;;;812.20;645.73;;;;;;;14.71;65.57;101338.50;5102989;28;20505;-68
2021/08/13 02:36:08;;;;;;;808.03;645.83;;;;;;;14.72;67.11;101333.97;5102613;28;20449;-68
2021/08/13 02:38:46;;;;;;;803.90;638.27;;;;;;;14.67;67.26;101330.72;5102852;28;20446;-68
2021/08/13 02:41:15;;;;;;;805.93;636.23;;;;;;;14.75;66.21;101336.44;5070970;28;20474;-68
2021/08/13 02:43:49;;;;;;;795.90;618.17;;;;;;;14.80;66.23;101337.78;5078572;28;20760;-68
2021/08/13 02:46:21;;;;;;;796.17;610.07;;;;;;;14.74;67.55;101324.75;5102496;28;20438;-68
2021/08/13 02:48:58;;;;;;;793.03;611.43;;;;;;;14.79;67.44;101324.41;5102428;28;20448;-68
2021/08/13 02:51:31;;;;;;;801.40;628.57;;;;;;;14.82;67.45;101334.97;5069691;28;20497;-68
2021/08/13 02:54:00;;;;;;;804.83;621.17;;;;;;;14.83;68.10;101332.16;5102504;28;20928;-68
2021/08/13 02:56:31;;;;;;;800.50;621.87;;;;;;;14.59;68.79;101288.91;5068544;28;20444;-68
2021/08/13 02:59:03;;;;;;;807.13;639.27;;;;;;;14.85;67.63;101323.91;5068579;28;20450;-68
2021/08/13 03:01:37;;;;;;;810.57;637.80;;;;;;;14.97;67.03;101333.78;5102258;28;20462;-68
2021/08/13 03:04:10;;;;;;;781.10;589.73;;;;;;;14.98;68.05;101334.66;5101973;28;20465;-68
2021/08/13 03:06:42;;;;;;;799.87;621.93;;;;;;;15.00;68.20;101333.59;5069911;28;20497;-68
2021/08/13 03:09:10;;;;;;;803.73;636.20;;;;;;;15.02;68.74;101334.31;5069503;28;20486;-68
2021/08/13 03:11:42;;;;;;;806.83;637.13;;;;;;;15.04;68.47;101331.50;5069524;28;20447;-68
2021/08/13 03:14:14;;;;;;;794.07;622.10;;;;;;;15.04;67.76;101321.53;5069485;28;20441;-68
2021/08/13 03:16:44;;;;;;;790.90;608.43;;;;;;;15.13;67.08;101322.66;5101941;28;20950;-68
2021/08/13 03:19:14;;;;;;;796.43;616.47;;;;;;;15.13;67.70;101312.69;5068067;28;20539;-68
2021/08/13 03:21:44;;;;;;;797.47;625.03;;;;;;;15.19;67.20;101317.63;5101907;28;20562;-68
2021/08/13 03:24:13;;;;;;;780.43;586.13;;;;;;;15.23;66.64;101321.81;5101610;28;20496;-68
2021/08/13 03:26:42;;;;;;;777.73;580.20;;;;;;;15.27;65.96;101317.03;5068200;28;20468;-68
2021/08/13 03:29:16;;;;;;;788.80;602.97;;;;;;;15.26;65.36;101306.31;5067514;28;20493;-68
2021/08/13 03:31:47;;;;;;;780.57;588.50;;;;;;;15.20;65.67;101288.72;5102106;28;20451;-68
2021/08/13 03:34:17;;;;;;;773.23;564.93;;;;;;;15.04;65.18;101264.72;5101770;28;20563;-68
2021/08/13 03:36:47;;;;;;;770.27;561.00;;;;;;;15.34;65.98;101304.75;5068108;28;20440;-68
2021/08/13 03:39:20;;;;;;;781.07;582.93;;;;;;;15.33;66.82;101311.16;5067703;28;20438;-68
2021/08/13 03:41:48;;;;;;;782.43;592.27;;;;;;;15.32;67.30;101308.56;5069424;28;20434;-68
2021/08/13 03:44:18;;;;;;;773.77;580.57;;;;;;;15.31;67.95;101315.81;5101476;28;20475;-68
2021/08/13 03:46:49;;;;;;;790.33;618.77;;;;;;;15.29;67.95;101309.66;5101956;28;20447;-68
2021/08/13 03:49:19;;;;;;;800.93;635.10;;;;;;;15.31;67.18;101310.41;5101409;28;20462;-68
2021/08/13 03:51:47;;;;;;;779.80;581.03;;;;;;;15.27;67.15;101303.50;5069143;28;20439;-68
2021/08/13 03:54:15;;;;;;;785.43;602.73;;;;;;;15.32;67.12;101305.88;5069005;28;21169;-68
2021/08/13 03:56:43;;;;;;;789.07;608.20;;;;;;;15.34;66.79;101301.19;5101611;28;20674;-68
2021/08/13 03:59:13;;;;;;;785.27;600.73;;;;;;;15.29;66.32;101281.72;5101292;28;20478;-68
2021/08/13 04:01:42;;;;;;;783.93;582.93;;;;;;;15.42;66.22;101306.84;5101349;28;20832;-68
2021/08/13 04:04:10;;;;;;;731.33;480.07;;;;;;;15.47;66.11;101299.22;5101614;28;20444;-68
2021/08/13 04:06:42;;;;;;;762.67;548.13;;;;;;;15.56;65.24;101303.03;5101322;28;20674;-68
2021/08/13 04:09:11;;;;;;;801.57;625.33;;;;;;;15.64;65.52;101308.75;5101311;28;20466;-68
2021/08/13 04:11:39;;;;;;;799.53;630.23;;;;;;;15.62;69.13;101308.88;5101492;28;20534;-68
2021/08/13 04:14:09;;;;;;;803.80;636.67;;;;;;;15.61;68.84;101306.25;5101179;28;20488;-68
2021/08/13 04:16:37;;;;;;;808.77;658.00;;;;;;;15.66;68.92;101307.66;5067790;28;20973;-69
2021/08/13 04:19:06;;;;;;;800.43;632.43;;;;;;;15.75;67.51;101309.59;5101329;28;20546;-68
2021/08/13 04:21:37;;;;;;;796.73;627.70;;;;;;;15.40;67.96;101243.84;5067359;28;20483;-68
2021/08/13 04:24:07;;;;;;;802.40;621.13;;;;;;;15.81;69.17;101308.25;5067733;28;20447;-68
2021/08/13 04:26:36;;;;;;;792.07;622.53;;;;;;;15.91;68.67;101311.94;5101687;28;20819;-68
2021/08/13 04:29:04;;;;;;;802.40;637.30;;;;;;;15.91;68.94;101313.78;5071955;28;20948;-68
2021/08/13 04:31:32;;;;;;;801.10;633.83;;;;;;;15.93;71.32;101309.13;5101099;28;20444;-68
2021/08/13 04:34:00;;;;;;;808.03;635.57;;;;;;;15.96;70.54;101307.03;5101027;28;20444;-68
2021/08/13 04:36:29;;;;;;;794.70;613.93;;;;;;;16.05;70.33;101299.97;5101258;28;20821;-68
2021/08/13 04:38:57;;;;;;;768.13;559.37;;;;;;;16.16;68.60;101302.66;5101397;28;20899;-68
2021/08/13 04:41:30;;;;;;;759.77;536.93;;;;;;;16.25;69.66;101306.47;5101392;28;20446;-68
2021/08/13 04:43:58;;;;;;;763.27;554.10;;;;;;;16.24;69.80;101300.19;5070730;28;20902;-68
2021/08/13 04:46:27;;;;;;;774.63;571.33;;;;;;;16.31;70.18;101301.41;5104631;28;20468;-68
2021/08/13 04:48:56;;;;;;;754.67;528.50;;;;;;;16.38;69.98;101302.63;5104908;28;20451;-68
2021/08/13 04:51:25;;;;;;;740.20;496.90;;;;;;;16.41;69.69;101301.50;5104860;28;20843;-68
2021/08/13 04:53:53;;;;;;;777.33;587.37;;;;;;;16.42;70.55;101306.78;5104966;28;20448;-68
2021/08/13 04:56:21;;;;;;;761.30;556.93;;;;;;;16.44;70.82;101303.94;5104446;28;20526;-68
2021/08/13 04:58:52;;;;;;;777.40;590.20;;;;;;;16.47;70.31;101314.53;5104858;28;20446;-68
2021/08/13 05:01:40;;;;;;;774.93;582.93;;;;;;;16.56;69.48;101310.22;5071386;28;20471;-68
2021/08/13 05:04:08;;;;;;;796.33;624.27;;;;;;;16.64;69.33;101307.72;5104603;28;20450;-68
2021/08/13 05:06:37;;;;;;;778.50;593.33;;;;;;;16.70;70.24;101307.22;5104449;28;20471;-68
2021/08/13 05:09:05;;;;;;;803.63;629.73;;;;;;;16.79;70.33;101313.72;5104345;28;20858;-68
2021/08/13 05:11:33;;;;;;;786.20;594.23;;;;;;;16.88;69.87;101311.09;5104393;28;20501;-68
2021/08/13 05:14:04;;;;;;;796.80;620.63;;;;;;;16.97;71.31;101306.72;5104183;28;20470;-68
2021/08/13 05:16:32;;;;;;;799.97;624.30;;;;;;;16.80;71.41;101258.47;5070307;28;20441;-69
2021/08/13 05:19:02;;;;;;;797.37;627.53;;;;;;;17.22;70.85;101308.19;5070211;28;20452;-68
2021/08/13 05:21:30;;;;;;;795.57;623.67;;;;;;;17.36;71.00;101305.13;5103865;28;20472;-69
2021/08/13 05:23:58;;;;;;;801.63;636.40;;;;;;;17.54;70.63;101297.25;5071486;28;20523;-68
2021/08/13 05:26:26;;;;;;;789.03;608.37;;;;;;;17.69;72.59;101301.34;5103954;28;20525;-68
2021/08/13 05:28:54;;;;;;;784.83;602.40;;;;;;;17.83;74.03;101305.56;5076152;28;20444;-69
2021/08/13 05:31:25;;;;;;;767.60;566.00;;;;;;;17.91;75.45;101300.28;5103965;28;20436;-68
2021/08/13 05:33:55;;;;;;;778.27;576.50;;;;;;;17.95;75.27;101288.13;5104015;28;20451;-69
2021/08/13 05:36:24;;;;;;;770.97;567.73;;;;;;;18.09;74.70;101287.78;5089676;28;20476;-69
2021/08/13 05:38:52;;;;;;;771.73;567.63;;;;;;;18.22;73.56;101285.63;5104016;28;20534;-68
2021/08/13 05:41:23;;;;;;;740.40;494.17;;;;;;;18.34;74.60;101288.22;5103510;28;20565;-68
2021/08/13 05:43:53;;;;;;;761.70;525.93;;;;;;;18.46;74.73;101276.22;5070134;28;20202;-68
2021/08/13 05:46:21;;;;;;;754.63;526.40;;;;;;;18.62;74.08;101279.25;5103375;28;20308;-68
2021/08/13 05:48:51;;;;;;;721.90;455.93;;;;;;;18.79;74.96;101274.97;5103775;28;20444;-68
2021/08/13 05:51:19;;;;;;;723.27;464.40;;;;;;;18.93;73.46;101280.81;5103681;28;20399;-68
2021/08/13 05:53:47;;;;;;;734.53;486.13;;;;;;;19.10;72.64;101292.88;5103462;28;20645;-69
2021/08/13 05:56:16;;;;;;;774.23;570.93;;;;;;;19.24;72.79;101294.25;5069437;28;20209;-69
2021/08/13 05:58:45;;;;;;;753.90;523.53;;;;;;;19.33;71.69;101287.94;5103834;28;20224;-69
2021/08/13 06:01:13;;;;;;;755.97;529.47;;;;;;;19.51;70.34;101296.19;5103143;28;20201;-69
2021/08/13 06:03:41;;;;;;;747.93;515.20;;;;;;;19.51;68.74;101277.13;5103376;28;20614;-69
2021/08/13 06:06:11;;;;;;;751.37;512.13;;;;;;;19.75;67.80;101303.91;5070518;28;20216;-68
2021/08/13 06:08:39;;;;;;;752.03;512.67;;;;;;;19.84;66.30;101306.56;5070689;28;20193;-69
2021/08/13 06:11:07;;;;;;;748.43;508.17;;;;;;;19.93;68.52;101310.28;5103180;28;20202;-68
2021/08/13 06:13:35;;;;;;;765.10;549.00;;;;;;;19.96;68.56;101301.81;5102868;28;20704;-68
2021/08/13 06:16:04;;;;;;;733.43;479.47;;;;;;;20.00;68.60;101299.63;5102949;28;20197;-69
2021/08/13 06:18:33;;;;;;;769.57;553.03;;;;;;;20.05;69.02;101297.31;5103069;28;20205;-68
2021/08/13 06:21:01;;;;;;;772.67;559.37;;;;;;;20.03;69.40;101292.00;5070312;28;20244;-68
2021/08/13 06:23:34;;;;;;;776.43;569.37;;;;;;;20.05;68.61;101294.56;5102890;28;20201;-69
2021/08/13 06:26:03;;;;;;;718.63;459.50;;;;;;;20.11;69.20;101292.09;5068640;28;20228;-72
2021/08/13 06:28:32;;;;;;;762.00;552.23;;;;;;;20.14;69.00;101294.50;5077955;28;20229;-68
2021/08/13 06:31:01;;;;;;;771.43;573.03;;;;;;;20.13;69.73;101290.06;5102372;28;20292;-69
2021/08/13 06:33:30;;;;;;;757.97;536.53;;;;;;;20.09;69.07;101294.13;5102617;28;20216;-68
2021/08/13 06:35:58;;;;;;;773.17;565.40;;;;;;;20.20;68.45;101284.00;5068778;28;20202;-68
2021/08/13 06:38:27;;;;;;;789.93;597.63;;;;;;;20.34;68.23;101286.22;5102668;28;20266;-68
2021/08/13 06:40:57;;;;;;;757.50;530.97;;;;;;;20.36;69.49;101286.91;5102684;28;20646;-68
2021/08/13 06:43:27;;;;;;;783.93;585.93;;;;;;;20.03;69.38;101239.34;5102748;28;20198;-68
2021/08/13 06:45:57;;;;;;;772.50;566.63;;;;;;;20.46;69.01;101285.00;5102515;28;20236;-68
2021/08/13 06:48:29;;;;;;;765.53;555.77;;;;;;;20.54;67.62;101267.88;5102631;28;20197;-68
2021/08/13 06:50:58;;;;;;;783.43;590.67;;;;;;;20.82;66.65;101274.13;5068793;28;20213;-68
2021/08/13 06:53:29;;;;;;;796.77;619.30;;;;;;;20.95;66.74;101267.22;5102566;28;20198;-68
2021/08/13 06:55:58;;;;;;;777.73;585.13;;;;;;;20.97;66.37;101267.06;5070210;28;20283;-68
2021/08/13 06:58:27;;;;;;;779.57;586.00;;;;;;;21.03;66.42;101264.53;5102369;28;20201;-68
2021/08/13 07:00:55;;;;;;;756.90;528.63;;;;;;;21.17;65.67;101256.81;5102692;28;20304;-68
2021/08/13 07:03:24;;;;;;;752.93;516.43;;;;;;;21.28;66.09;101259.28;5068281;28;20263;-68
2021/08/13 07:05:52;;;;;;;772.03;569.40;;;;;;;21.25;66.10;101222.22;5101635;28;20232;-69
2021/08/13 07:08:21;;;;;;;786.80;599.20;;;;;;;21.67;65.70;101256.94;5069507;28;20232;-68
2021/08/13 07:11:00;;;;;;;796.23;609.50;;;;;;;22.01;62.65;101256.91;5102292;28;20677;-68
2021/08/13 07:13:30;;;;;;;799.30;621.00;;;;;;;22.30;63.93;101254.63;5068381;28;20201;-69
2021/08/13 07:15:59;;;;;;;774.20;559.37;;;;;;;22.54;63.27;101248.34;5069874;28;20207;-68
2021/08/13 07:18:28;;;;;;;732.93;495.00;;;;;;;22.75;62.05;101255.22;5102130;28;20607;-68
2021/08/13 07:20:58;;;;;;;725.57;468.47;;;;;;;22.79;61.31;101242.91;5102013;28;20225;-68
2021/08/13 07:23:26;;;;;;;726.73;477.57;;;;;;;22.95;60.92;101255.75;5068186;28;20259;-69
2021/08/13 07:25:56;;;;;;;728.70;473.07;;;;;;;23.05;60.56;101250.97;5069492;28;20227;-68
2021/08/13 07:28:25;;;;;;;732.80;496.00;;;;;;;23.23;58.88;101247.00;5084675;28;20227;-68
2021/08/13 07:30:53;;;;;;;728.17;480.27;;;;;;;23.43;59.42;101250.22;5085021;28;20676;-68
2021/08/13 07:33:26;;;;;;;741.07;497.77;;;;;;;23.34;59.51;101225.75;5102110;28;20237;-69
2021/08/13 07:35:54;;;;;;;732.73;492.17;;;;;;;23.68;58.58;101259.25;5069313;28;20211;-68
2021/08/13 07:38:22;;;;;;;742.63;516.17;;;;;;;23.67;57.85;101226.53;5101688;28;20197;-68
2021/08/13 07:40:52;;;;;;;729.70;482.37;;;;;;;24.05;57.72;101257.72;5101897;28;20635;-69
2021/08/13 07:43:20;;;;;;;734.93;496.00;;;;;;;24.15;58.05;101255.59;5068913;28;20222;-68
2021/08/13 07:45:49;;;;;;;730.83;489.47;;;;;;;23.99;57.80;101239.25;5101748;28;20288;-68
2021/08/13 07:48:17;;;;;;;738.93;514.07;;;;;;;24.07;58.28;101258.41;5101446;28;20228;-68
2021/08/13 07:50:46;;;;;;;740.10;508.53;;;;;;;24.17;58.36;101259.88;5068028;28;20278;-68
2021/08/13 07:53:14;;;;;;;743.93;520.80;;;;;;;24.17;58.22;101256.28;5070191;28;20263;-68
2021/08/13 07:55:43;;;;;;;734.97;498.83;;;;;;;23.99;58.32;101256.56;5084541;28;20213;-69
2021/08/13 07:58:11;;;;;;;767.93;559.83;;;;;;;23.67;58.97;101252.06;5084400;28;20197;-68
2021/08/13 08:00:39;;;;;;;783.90;592.53;;;;;;;23.52;59.63;101251.03;5101520;28;20209;-68
2021/08/13 08:03:09;;;;;;;798.87;619.97;;;;;;;23.48;60.70;101242.31;5068975;28;20288;-68
2021/08/13 08:05:37;;;;;;;776.77;574.20;;;;;;;23.40;61.30;101241.50;5069037;28;20229;-68
2021/08/13 08:08:06;;;;;;;788.27;594.67;;;;;;;23.60;60.68;101244.72;5068818;28;20225;-68
2021/08/13 08:10:34;;;;;;;789.57;600.20;;;;;;;23.68;59.17;101242.81;5069513;28;20232;-68
2021/08/13 08:13:03;;;;;;;797.03;620.47;;;;;;;23.85;60.04;101241.69;5069017;28;20296;-68
2021/08/13 08:15:31;;;;;;;802.40;625.43;;;;;;;24.00;58.99;101235.47;5069321;28;20640;-68
2021/08/13 08:18:00;;;;;;;809.70;642.13;;;;;;;24.29;58.80;101235.66;5073307;28;20703;-68
2021/08/13 08:20:29;;;;;;;816.53;655.07;;;;;;;24.50;58.05;101228.69;5073054;28;20201;-68
2021/08/13 08:22:57;;;;;;;789.80;597.03;;;;;;;24.90;57.08;101225.59;5072626;28;20225;-68
2021/08/13 08:25:25;;;;;;;817.97;653.47;;;;;;;25.29;55.35;101221.78;5072788;28;20251;-68
2021/08/13 08:27:53;;;;;;;823.47;660.20;;;;;;;25.55;54.79;101227.69;5072836;28;20635;-68
2021/08/13 08:30:21;;;;;;;784.70;598.83;;;;;;;25.72;54.48;101228.38;5072650;28;20250;-68
2021/08/13 08:32:50;;;;;;;792.87;611.43;;;;;;;25.98;53.90;101228.72;5072682;28;20213;-68
2021/08/13 08:35:18;;;;;;;776.23;582.33;;;;;;;26.12;53.71;101228.88;5072352;28;20626;-68
2021/08/13 08:37:55;;;;;;;774.93;586.90;;;;;;;26.44;52.36;101222.06;5072498;28;20229;-68
2021/08/13 08:40:27;;;;;;;789.20;602.20;;;;;;;26.65;50.77;101223.97;5072827;28;20250;-68
2021/08/13 08:42:57;;;;;;;758.43;561.80;;;;;;;26.76;50.43;101210.50;5072585;28;20224;-69
2021/08/13 08:45:25;;;;;;;819.10;652.70;;;;;;;26.93;50.64;101228.47;5072356;28;20317;-69
2021/08/13 08:47:57;;;;;;;801.17;628.47;;;;;;;27.09;51.09;101212.72;5072185;28;20232;-68
2021/08/13 08:50:26;;;;;;;809.27;640.60;;;;;;;27.07;49.59;101228.63;5072724;28;20236;-68
2021/08/13 08:52:58;;;;;;;804.10;635.83;;;;;;;27.30;49.30;101223.72;5072524;28;20236;-69
2021/08/13 08:55:26;;;;;;;834.70;685.50;;;;;;;27.44;48.78;101217.19;5072384;28;20197;-69
2021/08/13 08:57:56;;;;;;;829.63;678.37;;;;;;;27.26;49.12;101222.41;5072350;28;20206;-68
2021/08/13 09:00:24;;;;;;;839.63;696.97;;;;;;;27.56;47.25;101186.28;5071927;28;20197;-68
2021/08/13 09:02:54;;;;;;;855.77;727.83;;;;;;;27.68;48.69;101213.13;5072457;28;20217;-68
2021/08/13 09:05:22;;;;;;;863.90;740.17;;;;;;;27.97;48.96;101209.22;5058252;28;20296;-68
2021/08/13 09:07:50;;;;;;;858.13;722.90;;;;;;;28.24;48.29;101206.56;5072091;28;20311;-68
2021/08/13 09:10:21;;;;;;;872.07;743.20;;;;;;;27.88;47.67;101213.25;5071906;28;20802;-68
2021/08/13 09:12:52;;;;;;;865.87;740.13;;;;;;;28.06;48.49;101205.22;5071875;28;20237;-68
2021/08/13 09:15:29;;;;;;;874.27;748.80;;;;;;;28.47;47.21;101211.72;5071661;28;20434;-68
2021/08/13 09:18:22;;;;;;;862.67;736.63;;;;;;;28.06;47.17;101168.44;5072388;28;20233;-68
2021/08/13 09:20:52;;;;;;;848.30;705.53;;;;;;;28.56;47.56;101200.28;5066656;28;20219;-69
2021/08/13 09:23:31;;;;;;;868.03;738.13;;;;;;;28.94;45.71;101192.22;5071136;28;20213;-68
2021/08/13 09:26:02;;;;;;;876.17;756.60;;;;;;;28.88;46.13;101168.19;5072184;28;20676;-69
2021/08/13 09:28:51;;;;;;;878.90;750.77;;;;;;;28.76;45.29;101180.91;5070999;28;20719;-68
2021/08/13 09:31:33;;;;;;;872.57;752.20;;;;;;;29.40;44.77;101196.00;5091519;28;20208;-69
2021/08/13 09:34:08;;;;;;;886.17;768.07;;;;;;;29.33;44.91;101191.31;5071513;28;20675;-68
2021/08/13 09:36:37;;;;;;;887.33;768.07;;;;;;;29.70;45.54;101188.91;5071545;28;20197;-68
2021/08/13 09:39:10;;;;;;;882.60;766.97;;;;;;;30.09;44.73;101187.06;5071134;28;20193;-68
2021/08/13 09:41:48;;;;;;;884.20;767.50;;;;;;;29.74;42.36;101173.56;5071481;28;20185;-68
2021/08/13 09:44:24;;;;;;;855.43;722.10;;;;;;;29.66;43.27;101171.84;5070907;28;20201;-69
2021/08/13 09:46:57;;;;;;;880.87;753.37;;;;;;;30.00;43.85;101161.47;5071248;28;20667;-69
2021/08/13 09:49:26;;;;;;;869.60;745.13;;;;;;;29.68;44.06;101136.47;5070909;28;20604;-69
2021/08/13 09:51:54;;;;;;;879.77;753.47;;;;;;;29.86;43.42;101176.47;5070000;28;20229;-69
2021/08/13 09:54:28;;;;;;;889.73;773.93;;;;;;;29.75;43.86;101133.72;5103437;28;20311;-69
2021/08/13 09:57:09;;;;;;;871.93;753.17;;;;;;;29.58;42.46;101162.94;5057017;28;20408;-68
2021/08/13 09:59:37;;;;;;;874.67;751.40;;;;;;;29.31;43.75;101162.16;5070840;28;20193;-69
2021/08/13 10:02:14;;;;;;;860.53;728.87;;;;;;;29.48;43.91;101155.13;5069428;28;20210;-69
2021/08/13 10:04:43;;;;;;;857.17;728.23;;;;;;;29.51;43.35;101126.16;5070768;28;20554;-68
2021/08/13 10:07:17;;;;;;;873.87;748.57;;;;;;;29.72;42.74;101153.53;5103163;28;20216;-69
2021/08/13 10:09:48;;;;;;;877.83;757.23;;;;;;;29.61;43.71;101109.91;5103142;28;20278;-68
2021/08/13 10:12:18;;;;;;;887.80;772.50;;;;;;;30.20;43.35;101129.00;5103106;28;20212;-69
2021/08/13 10:14:46;;;;;;;896.60;780.70;;;;;;;30.48;41.64;101142.44;5070792;28;20247;-69
2021/08/13 10:17:20;;;;;;;879.63;758.53;;;;;;;30.13;41.42;101127.34;5055777;28;20223;-69
2021/08/13 10:20:06;;;;;;;890.57;776.87;;;;;;;29.94;40.45;101138.28;5102865;28;20204;-68
2021/08/13 10:22:35;;;;;;;881.93;762.43;;;;;;;30.21;41.51;101125.13;5102995;28;20232;-69
2021/08/13 10:25:03;;;;;;;866.53;737.47;;;;;;;30.50;42.12;101122.78;5070700;28;20186;-69
2021/08/13 10:27:33;;;;;;;879.77;761.60;;;;;;;30.45;41.49;101122.63;5103189;28;20220;-69
2021/08/13 10:30:07;;;;;;;864.40;742.60;;;;;;;30.62;41.71;101117.41;5102752;28;20231;-69
2021/08/13 10:32:39;;;;;;;880.77;758.73;;;;;;;30.47;40.62;101107.47;5102705;28;20244;-69
2021/08/13 10:35:09;;;;;;;884.47;769.87;;;;;;;30.21;40.55;101118.75;5102775;28;20304;-68
2021/08/13 10:37:40;;;;;;;871.17;752.27;;;;;;;30.19;40.55;101107.03;5102626;28;20197;-69
2021/08/13 10:40:10;;;;;;;893.10;777.13;;;;;;;29.66;41.47;101110.94;5069164;28;20194;-68
2021/08/13 10:42:45;;;;;;;891.13;779.90;;;;;;;29.35;41.57;101097.84;5068792;28;20205;-68
2021/08/13 10:45:22;;;;;;;903.10;788.53;;;;;;;29.16;41.15;101051.72;5102469;28;20227;-69
2021/08/13 10:48:01;;;;;;;890.50;772.33;;;;;;;28.93;41.95;101103.94;5068755;28;20452;-69
2021/08/13 10:50:30;;;;;;;875.23;758.40;;;;;;;28.82;40.97;101065.84;5102633;28;20197;-69
2021/08/13 10:52:58;;;;;;;874.33;758.67;;;;;;;28.81;41.54;101094.56;5102231;28;20247;-69
2021/08/13 10:55:45;;;;;;;875.13;757.50;;;;;;;28.86;42.92;101084.59;5102655;28;20208;-69
2021/08/13 10:58:43;;;;;;;890.47;777.80;;;;;;;29.18;42.33;101096.63;5068175;28;20194;-69
2021/08/13 11:01:26;;;;;;;885.53;774.07;;;;;;;29.40;42.47;101093.59;5068093;28;20225;-69
2021/08/13 11:04:11;;;;;;;866.77;747.50;;;;;;;29.29;41.53;101095.94;5102325;28;20658;-68
2021/08/13 11:06:45;;;;;;;864.93;740.10;;;;;;;29.02;42.61;101091.56;5102032;28;20237;-69
2021/08/13 11:09:34;;;;;;;866.80;739.50;;;;;;;28.59;41.38;101082.88;5101915;28;20715;-69
2021/08/13 11:12:10;;;;;;;876.80;759.80;;;;;;;28.59;42.26;101077.34;5102264;28;20239;-69